createdAt,value
2023-01-07T09:58:33.460Z,5.78
2023-01-07T10:01:23.211Z,5.72
2023-01-07T10:04:19.174Z,4.57
2023-01-07T10:06:57.084Z,5.60
2023-01-07T10:09:26.769Z,5.55
2023-01-07T10:12:06.413Z,3.53
2023-01-07T10:14:59.350Z,5.10
2023-01-07T10:17:29.592Z,4.90
2023-01-07T10:20:09.002Z,4.15
2023-01-07T10:22:38.433Z,3.70
2023-01-07T10:25:15.737Z,3.78
2023-01-07T10:27:43.877Z,3.95
2023-01-07T10:30:25.824Z,3.75
2023-01-07T10:33:05.595Z,4.60
2023-01-07T10:35:34.319Z,3.13
2023-01-07T10:38:04.706Z,3.10
2023-01-07T10:41:05.407Z,2.58
2023-01-07T10:43:38.025Z,2.60
2023-01-07T10:46:29.128Z,2.40
2023-01-07T10:48:55.712Z,2.00
2023-01-07T10:51:37.356Z,2.22
2023-01-07T10:54:16.251Z,3.10
2023-01-07T10:56:48.714Z,2.20
2023-01-07T10:59:18.526Z,3.40
2023-01-07T11:01:50.154Z,2.97
2023-01-07T11:04:17.185Z,4.45
2023-01-07T11:07:26.232Z,3.65
2023-01-07T11:09:53.614Z,3.65
2023-01-07T11:12:45.155Z,3.20
2023-01-07T11:15:37.129Z,3.05
2023-01-07T11:18:29.407Z,2.90
2023-01-07T11:20:57.641Z,2.00
2023-01-07T11:23:42.852Z,2.22
2023-01-07T11:26:27.476Z,1.90
2023-01-07T11:29:00.175Z,1.85
2023-01-07T11:31:47.512Z,1.85
2023-01-07T11:34:38.026Z,1.92
2023-01-07T11:37:05.296Z,2.03
2023-01-07T11:39:36.165Z,2.53
2023-01-07T11:42:25.682Z,2.03
2023-01-07T11:45:20.406Z,2.85
2023-01-07T11:48:08.715Z,2.50
2023-01-07T11:50:41.055Z,2.92
2023-01-07T11:53:11.382Z,3.00
2023-01-07T11:55:38.053Z,2.55
2023-01-07T11:58:28.914Z,3.00
2023-01-07T12:01:08.952Z,2.45
2023-01-07T12:03:37.421Z,2.47
2023-01-07T12:06:24.007Z,3.15
2023-01-07T12:09:04.842Z,2.53
2023-01-07T12:11:34.853Z,2.30
2023-01-07T12:14:12.133Z,2.65
2023-01-07T12:16:38.875Z,3.33
2023-01-07T12:19:23.243Z,2.88
2023-01-07T12:22:10.744Z,2.78
2023-01-07T12:24:56.234Z,2.38
2023-01-07T12:27:37.735Z,2.60
2023-01-07T12:30:07.288Z,3.45
2023-01-07T12:32:49.121Z,3.28
2023-01-07T12:35:19.343Z,3.15
2023-01-07T12:37:53.797Z,3.55
2023-01-07T12:40:31.885Z,3.53
2023-01-07T12:43:13.617Z,4.28
2023-01-07T12:45:46.554Z,4.00
2023-01-07T12:48:21.102Z,4.22
2023-01-07T12:50:50.165Z,3.05
2023-01-07T12:53:34.108Z,3.33
2023-01-07T12:56:04.838Z,2.63
2023-01-07T12:58:47.034Z,2.22
2023-01-07T13:01:29.138Z,2.70
2023-01-07T13:04:12.939Z,3.17
2023-01-07T13:06:44.917Z,2.58
2023-01-07T13:09:27.745Z,2.28
2023-01-07T13:12:40.788Z,2.50
2023-01-07T13:15:30.935Z,2.50
2023-01-07T13:17:59.725Z,3.05
2023-01-07T13:20:29.190Z,4.07
2023-01-07T13:22:56.663Z,4.85
2023-01-07T13:25:45.584Z,5.22
2023-01-07T13:28:47.099Z,4.30
2023-01-07T13:31:13.716Z,4.53
2023-01-07T13:34:08.340Z,4.03
2023-01-07T13:36:45.089Z,4.00
2023-01-07T13:39:27.230Z,4.93
2023-01-07T13:42:02.104Z,3.67
2023-01-07T13:44:54.521Z,5.80
2023-01-07T13:47:22.957Z,3.95
2023-01-07T13:50:00.777Z,13.43
2023-01-07T13:52:30.525Z,3.45
2023-01-07T13:55:02.817Z,5.40
2023-01-07T13:57:29.548Z,4.38
2023-01-07T13:59:57.813Z,3.78
2023-01-07T14:02:26.004Z,3.63
2023-01-07T14:05:10.648Z,3.53
2023-01-07T14:07:57.743Z,4.15
2023-01-07T14:10:35.500Z,4.05
2023-01-07T14:13:08.753Z,4.47
2023-01-07T14:18:28.310Z,4.90
2023-01-07T14:21:40.799Z,4.22
2023-01-07T14:24:44.956Z,4.32
2023-01-07T14:27:57.415Z,4.40
2023-01-07T14:30:36.432Z,4.47
2023-01-07T14:33:04.512Z,4.70
2023-01-07T14:35:36.221Z,4.70
2023-01-07T14:38:31.779Z,4.65
2023-01-07T14:41:11.036Z,4.00
2023-01-07T14:43:40.500Z,3.85
2023-01-07T14:46:08.615Z,4.95
2023-01-07T14:48:37.000Z,5.22
2023-01-07T14:51:29.125Z,4.93
2023-01-07T14:54:17.882Z,4.07
2023-01-07T14:57:01.892Z,3.75
2023-01-07T14:59:34.548Z,2.97
2023-01-07T15:02:32.027Z,3.60
2023-01-07T15:05:17.697Z,2.90
2023-01-07T15:07:48.692Z,3.42
2023-01-07T15:10:41.490Z,3.17
2023-01-07T15:13:32.818Z,3.10
2023-01-07T15:16:03.840Z,3.75
2023-01-07T15:18:52.520Z,3.25
2023-01-07T15:21:41.017Z,3.47
2023-01-07T15:24:13.899Z,4.65
2023-01-07T15:26:50.454Z,4.40
2023-01-07T15:29:32.235Z,4.85
2023-01-07T15:32:45.761Z,5.10
2023-01-07T15:35:25.275Z,4.55
2023-01-07T15:37:52.069Z,3.97
2023-01-07T15:40:20.692Z,4.25
2023-01-07T15:42:48.935Z,4.63
2023-01-07T15:45:20.528Z,4.00
2023-01-07T15:47:47.225Z,4.20
2023-01-07T15:50:27.834Z,3.97
2023-01-07T15:53:03.713Z,4.10
2023-01-07T15:55:39.009Z,4.85
2023-01-07T15:58:16.809Z,5.80
2023-01-07T16:00:43.878Z,5.55
2023-01-07T16:03:15.777Z,7.82
2023-01-07T16:05:42.951Z,7.38
2023-01-07T16:08:18.609Z,6.63
2023-01-07T16:11:02.264Z,6.03
2023-01-07T16:13:30.225Z,7.32
2023-01-07T16:16:03.389Z,6.80
2023-01-07T16:21:04.576Z,5.18
2023-01-07T16:23:36.185Z,4.82
2023-01-07T16:26:04.540Z,6.03
2023-01-07T16:28:34.832Z,5.93
2023-01-07T16:31:04.078Z,6.65
2023-01-07T16:33:32.649Z,8.30
2023-01-07T16:36:01.096Z,7.63
2023-01-07T16:38:28.130Z,6.88
2023-01-07T16:40:55.244Z,7.43
2023-01-07T16:43:40.186Z,7.35
2023-01-07T16:46:26.409Z,6.15
2023-01-07T16:49:11.350Z,5.75
2023-01-07T16:51:41.236Z,6.38
2023-01-07T16:54:25.903Z,6.30
2023-01-07T16:57:12.743Z,7.03
2023-01-07T16:59:45.704Z,7.43
2023-01-07T17:05:13.397Z,6.32
2023-01-07T17:07:40.443Z,6.22
2023-01-07T17:10:07.823Z,5.50
2023-01-07T17:12:39.363Z,6.65
2023-01-07T17:15:31.218Z,6.15
2023-01-07T17:18:13.060Z,5.32
2023-01-07T17:20:43.370Z,6.18
2023-01-07T17:23:25.351Z,5.43
2023-01-07T17:25:59.018Z,5.35
2023-01-07T17:28:27.035Z,6.38
2023-01-07T17:30:54.096Z,7.00
2023-01-07T17:33:22.688Z,7.22
2023-01-07T17:35:51.338Z,6.68
2023-01-07T17:38:18.909Z,5.70
2023-01-07T17:40:46.008Z,6.30
2023-01-07T17:43:37.532Z,4.93
2023-01-07T17:46:05.114Z,8.35
2023-01-07T17:48:32.632Z,7.80
2023-01-07T17:51:01.329Z,7.22
2023-01-07T17:53:37.852Z,7.43
2023-01-07T17:56:04.730Z,7.40
2023-01-07T17:58:33.869Z,7.40
2023-01-07T18:01:02.800Z,6.30
2023-01-07T18:03:29.663Z,7.03
2023-01-07T18:05:56.498Z,6.22
2023-01-07T18:08:23.316Z,6.00
2023-01-07T18:11:10.158Z,6.90
2023-01-07T18:13:37.140Z,7.13
2023-01-07T18:16:04.049Z,8.35
2023-01-07T18:18:30.804Z,8.63
2023-01-07T18:20:58.316Z,7.57
2023-01-07T18:23:25.440Z,6.90
2023-01-07T18:25:52.154Z,7.43
2023-01-07T18:28:18.822Z,8.32
2023-01-07T18:30:45.576Z,7.63
2023-01-07T18:33:12.852Z,7.70
2023-01-07T18:35:40.600Z,8.50
2023-01-07T18:38:16.875Z,9.00
2023-01-07T18:40:43.839Z,7.90
2023-01-07T18:43:14.653Z,7.82
2023-01-07T18:45:43.003Z,7.32
2023-01-07T18:48:11.035Z,7.53
2023-01-07T18:50:41.644Z,7.28
2023-01-07T18:53:09.556Z,7.68
2023-01-07T18:55:37.429Z,7.00
2023-01-07T18:58:04.328Z,7.63
2023-01-07T19:00:31.120Z,7.35
2023-01-07T19:02:58.391Z,6.93
2023-01-07T19:05:25.855Z,8.05
2023-01-07T19:07:53.022Z,8.50
2023-01-07T19:10:19.794Z,10.52
2023-01-07T19:12:46.559Z,10.90
2023-01-07T19:15:13.278Z,9.25
2023-01-07T19:17:39.946Z,9.38
2023-01-07T19:20:08.357Z,9.90
2023-01-07T19:22:35.166Z,9.43
2023-01-07T19:25:02.048Z,10.45
2023-01-07T19:27:28.831Z,8.52
2023-01-07T19:29:55.508Z,9.55
2023-01-07T19:32:22.341Z,8.35
2023-01-07T19:34:52.296Z,8.00
2023-01-07T19:37:19.424Z,7.90
2023-01-07T19:39:46.183Z,7.15
2023-01-07T19:42:12.891Z,8.30
2023-01-07T19:44:41.532Z,8.45
2023-01-07T19:47:08.297Z,10.18
2023-01-07T19:49:36.008Z,10.75
2023-01-07T19:52:05.369Z,13.35
2023-01-07T19:54:32.022Z,12.13
2023-01-07T19:56:58.677Z,14.70
2023-01-07T19:59:25.421Z,11.77
2023-01-07T20:01:53.757Z,11.55
2023-01-07T20:04:20.762Z,12.40
2023-01-07T20:06:47.876Z,13.20
2023-01-07T20:09:14.587Z,14.23
2023-01-07T20:11:43.138Z,12.57
2023-01-07T20:14:11.938Z,12.75
2023-01-07T20:16:41.359Z,13.77
2023-01-07T20:19:10.987Z,14.13
2023-01-07T20:21:41.335Z,12.13
2023-01-07T20:24:08.411Z,11.55
2023-01-07T20:26:35.562Z,11.55
2023-01-07T20:29:02.260Z,13.02
2023-01-07T20:31:30.171Z,13.77
2023-01-07T20:33:57.513Z,14.32
2023-01-07T20:36:29.917Z,12.73
2023-01-07T20:38:56.843Z,11.48
2023-01-07T20:41:27.410Z,13.25
2023-01-07T20:44:04.092Z,12.27
2023-01-07T20:46:31.430Z,11.88
2023-01-07T20:48:58.265Z,12.50
2023-01-07T20:51:25.613Z,14.50
2023-01-07T20:53:52.585Z,14.77
2023-01-07T20:56:21.872Z,13.70
2023-01-07T20:58:49.642Z,13.82
2023-01-07T21:01:19.107Z,13.57
2023-01-07T21:03:45.984Z,16.73
2023-01-07T21:06:14.250Z,14.73
2023-01-07T21:08:41.451Z,13.85
2023-01-07T21:11:12.620Z,14.00
2023-01-07T21:13:39.353Z,13.32
2023-01-07T21:16:06.433Z,11.60
2023-01-07T21:18:33.882Z,11.45
2023-01-07T21:21:01.921Z,11.35
2023-01-07T21:23:28.654Z,12.10
2023-01-07T21:25:55.351Z,11.88
2023-01-07T21:28:22.057Z,12.45
2023-01-07T21:30:48.879Z,10.32
2023-01-07T21:33:16.035Z,12.50
2023-01-07T21:35:42.793Z,13.23
2023-01-07T21:38:09.696Z,13.43
2023-01-07T21:40:38.895Z,14.07
2023-01-07T21:43:06.308Z,14.10
2023-01-07T21:45:33.176Z,14.02
2023-01-07T21:47:59.871Z,14.63
2023-01-07T21:50:26.777Z,19.08
2023-01-07T21:52:53.481Z,15.88
2023-01-07T21:55:20.316Z,38.03
2023-01-07T21:57:47.003Z,14.80
2023-01-07T22:00:14.287Z,14.30
2023-01-07T22:02:41.124Z,15.95
2023-01-07T22:05:08.574Z,16.30
2023-01-07T22:07:35.237Z,18.63
2023-01-07T22:10:02.480Z,17.02
2023-01-07T22:12:29.226Z,16.65
2023-01-07T22:14:55.901Z,14.90
2023-01-07T22:17:24.439Z,14.05
2023-01-07T22:19:51.216Z,14.68
2023-01-07T22:22:19.381Z,14.55
2023-01-07T22:24:46.164Z,12.60
2023-01-07T22:27:12.881Z,13.45
2023-01-07T22:29:39.514Z,12.82
2023-01-07T22:32:06.217Z,12.30
2023-01-07T22:34:32.929Z,10.52
2023-01-07T22:37:14.326Z,10.40
2023-01-07T22:39:57.562Z,11.32
2023-01-07T22:42:39.300Z,10.35
2023-01-07T22:45:11.318Z,11.65
2023-01-07T22:47:42.016Z,12.48
2023-01-07T22:50:09.372Z,12.98
2023-01-07T22:52:37.072Z,13.07
2023-01-07T22:55:04.965Z,12.30
2023-01-07T22:57:31.833Z,13.30
2023-01-07T23:00:00.433Z,12.43
2023-01-07T23:02:27.612Z,11.57
2023-01-07T23:04:54.313Z,12.52
2023-01-07T23:07:21.010Z,12.52
2023-01-07T23:09:49.069Z,13.80
2023-01-07T23:12:16.872Z,13.93
2023-01-07T23:14:43.582Z,14.80
2023-01-07T23:17:10.675Z,15.20
2023-01-07T23:19:37.423Z,15.70
2023-01-07T23:22:04.121Z,15.20
2023-01-07T23:24:30.802Z,16.27
2023-01-07T23:26:57.437Z,15.15
2023-01-07T23:29:24.239Z,15.82
2023-01-07T23:31:51.082Z,16.80
2023-01-07T23:34:17.895Z,16.02
2023-01-07T23:36:44.617Z,16.00
2023-01-07T23:39:11.744Z,16.40
2023-01-07T23:41:38.406Z,15.27
2023-01-07T23:44:05.157Z,14.60
2023-01-07T23:46:31.870Z,16.98
2023-01-07T23:48:58.525Z,16.10
2023-01-07T23:51:25.255Z,15.30
2023-01-07T23:53:51.888Z,15.38
2023-01-07T23:56:19.836Z,16.10
2023-01-07T23:58:46.766Z,15.73
